createdAt,value
2023-01-20T00:00:41.087Z,99758.31
2023-01-20T00:03:45.742Z,99778.69
2023-01-20T00:06:48.308Z,99772.63
2023-01-20T00:09:50.766Z,99802.25
2023-01-20T00:12:53.268Z,99791.84
2023-01-20T00:15:55.734Z,99804.88
2023-01-20T00:18:58.620Z,99821.22
2023-01-20T00:22:01.067Z,99829.44
2023-01-20T00:25:03.593Z,99822.56
2023-01-20T00:28:10.300Z,99819.47
2023-01-20T00:31:20.399Z,99832.78
2023-01-20T00:34:22.812Z,99822.34
2023-01-20T00:37:25.382Z,99807.69
2023-01-20T00:40:27.823Z,99825.25
2023-01-20T00:43:30.282Z,99810.06
2023-01-20T00:46:32.722Z,99810.03
2023-01-20T00:49:35.155Z,99819.84
2023-01-20T00:52:37.596Z,99828.09
2023-01-20T00:55:40.247Z,99824.28
2023-01-20T00:58:44.330Z,99828.97
2023-01-20T01:01:47.191Z,99826.13
2023-01-20T01:04:50.927Z,99844.88
2023-01-20T01:07:53.348Z,99836.81
2023-01-20T01:10:56.095Z,99816.81
2023-01-20T01:13:58.595Z,99838.56
2023-01-20T01:17:01.109Z,99837.78
2023-01-20T01:20:04.449Z,99835.66
2023-01-20T01:23:06.860Z,99835.66
2023-01-20T01:26:10.459Z,99824.59
2023-01-20T01:29:13.199Z,99824.97
2023-01-20T01:32:15.661Z,99827.31
2023-01-20T01:35:18.172Z,99772.56
2023-01-20T01:38:20.604Z,99796.94
2023-01-20T01:41:22.969Z,99812.88
2023-01-20T01:44:26.553Z,99799.16
2023-01-20T01:47:28.960Z,99808.19
2023-01-20T01:50:42.049Z,99808.69
2023-01-20T01:53:48.212Z,99810.63
2023-01-20T01:56:51.288Z,99786.75
2023-01-20T01:59:53.838Z,99802.09
2023-01-20T02:02:56.914Z,99782.19
2023-01-20T02:05:59.496Z,99791.78
2023-01-20T02:09:03.709Z,99805.19
2023-01-20T02:12:09.874Z,99806.72
2023-01-20T02:15:12.689Z,99807.50
2023-01-20T02:18:54.838Z,99785.75
2023-01-20T02:22:18.917Z,99814.78
2023-01-20T02:25:35.876Z,99810.78
2023-01-20T02:28:54.165Z,99800.69
2023-01-20T02:32:09.716Z,99813.91
2023-01-20T02:35:21.726Z,99817.81
2023-01-20T02:38:34.992Z,99811.31
2023-01-20T02:41:52.511Z,99826.06
2023-01-20T02:45:09.735Z,99812.19
2023-01-20T02:48:22.927Z,99790.34
2023-01-20T02:51:57.344Z,99817.84
2023-01-20T02:55:04.446Z,99786.19
2023-01-20T02:58:28.774Z,99815.22
2023-01-20T03:01:34.629Z,99807.84
2023-01-20T03:04:50.659Z,99808.22
2023-01-20T03:07:53.725Z,99792.78
2023-01-20T03:10:59.554Z,99794.78
2023-01-20T03:14:06.299Z,99816.53
2023-01-20T03:17:08.683Z,99814.97
2023-01-20T03:20:11.702Z,99810.78
2023-01-20T03:23:14.145Z,99795.84
2023-01-20T03:26:18.937Z,99804.31
2023-01-20T03:29:21.438Z,99813.03
2023-01-20T03:32:26.847Z,99795.84
2023-01-20T03:35:29.446Z,99790.53
2023-01-20T03:38:31.997Z,99765.75
2023-01-20T03:42:01.298Z,99776.97
2023-01-20T03:45:10.818Z,99766.59
2023-01-20T03:48:31.918Z,99771.56
2023-01-20T03:51:45.608Z,99766.50
2023-01-20T03:54:52.190Z,99753.47
2023-01-20T03:57:58.664Z,99761.31
2023-01-20T04:01:15.583Z,99758.50
2023-01-20T04:04:21.694Z,99763.94
2023-01-20T04:07:25.724Z,99782.75
2023-01-20T04:10:31.052Z,99776.66
2023-01-20T04:13:33.998Z,99780.06
2023-01-20T04:16:36.566Z,99766.91
2023-01-20T04:19:39.290Z,99787.47
2023-01-20T04:22:51.125Z,99789.03
2023-01-20T04:25:53.553Z,99798.72
2023-01-20T04:28:56.015Z,99786.00
2023-01-20T04:32:02.379Z,99786.22
2023-01-20T04:35:05.198Z,99811.53
2023-01-20T04:38:07.737Z,99774.72
2023-01-20T04:41:11.812Z,99800.66
2023-01-20T04:44:14.315Z,99795.47
2023-01-20T04:47:16.703Z,99785.09
2023-01-20T04:50:19.388Z,99791.13
2023-01-20T04:53:21.798Z,99794.09
2023-01-20T04:56:24.354Z,99806.28
2023-01-20T04:59:26.720Z,99803.97
2023-01-20T05:02:29.171Z,99786.50
2023-01-20T05:05:31.669Z,99767.81
2023-01-20T05:08:34.566Z,99805.03
2023-01-20T05:11:37.697Z,99782.19
2023-01-20T05:14:40.145Z,99759.09
2023-01-20T05:17:42.511Z,99789.69
2023-01-20T05:20:49.332Z,99791.94
2023-01-20T05:23:55.568Z,99783.63
2023-01-20T05:27:00.973Z,99785.19
2023-01-20T05:30:05.288Z,99765.72
2023-01-20T05:33:08.354Z,99758.44
2023-01-20T05:36:11.751Z,99769.06
2023-01-20T05:39:14.154Z,99768.06
2023-01-20T05:42:16.740Z,99747.31
2023-01-20T05:45:19.147Z,99711.34
2023-01-20T05:48:21.934Z,99735.84
2023-01-20T05:51:24.560Z,99737.97
2023-01-20T05:54:26.993Z,99750.69
2023-01-20T05:57:29.369Z,99729.66
2023-01-20T06:00:32.245Z,99783.06
2023-01-20T06:03:35.351Z,99764.94
2023-01-20T06:06:37.968Z,99802.34
2023-01-20T06:09:40.913Z,99809.13
2023-01-20T06:12:43.454Z,99801.22
2023-01-20T06:15:51.720Z,99800.31
2023-01-20T06:18:54.232Z,99789.53
2023-01-20T06:21:56.984Z,99781.28
2023-01-20T06:24:59.450Z,99775.56
2023-01-20T06:28:01.930Z,99785.00
2023-01-20T06:31:08.411Z,99780.78
2023-01-20T06:34:11.841Z,99777.25
2023-01-20T06:37:14.285Z,99766.38
2023-01-20T06:40:17.577Z,99750.41
2023-01-20T06:43:23.098Z,99778.09
2023-01-20T06:46:26.038Z,99781.66
2023-01-20T06:49:28.740Z,99757.03
2023-01-20T06:52:31.168Z,99766.84
2023-01-20T06:55:33.617Z,99738.97
2023-01-20T06:58:36.165Z,99769.75
2023-01-20T07:01:39.072Z,99771.31
2023-01-20T07:04:43.343Z,99762.69
2023-01-20T07:07:46.400Z,99755.69
2023-01-20T07:10:48.837Z,99769.13
2023-01-20T07:13:51.215Z,99759.22
2023-01-20T07:16:53.749Z,99763.38
2023-01-20T07:19:56.437Z,99752.13
2023-01-20T07:23:02.800Z,99749.31
2023-01-20T07:26:08.093Z,99732.34
2023-01-20T07:29:10.790Z,99736.72
2023-01-20T07:32:14.017Z,99737.94
2023-01-20T07:35:17.364Z,99752.38
2023-01-20T07:38:20.024Z,99737.88
2023-01-20T07:41:22.832Z,99726.53
2023-01-20T07:44:25.270Z,99722.38
2023-01-20T07:47:27.687Z,99715.59
2023-01-20T07:50:30.415Z,99691.06
2023-01-20T07:53:47.413Z,99708.59
2023-01-20T07:56:49.871Z,99707.03
2023-01-20T07:59:52.448Z,99693.78
2023-01-20T08:02:55.142Z,99666.53
2023-01-20T08:05:57.678Z,99650.63
2023-01-20T08:09:01.816Z,99651.59
2023-01-20T08:12:04.556Z,99651.00
2023-01-20T08:15:07.809Z,99689.44
2023-01-20T08:18:10.265Z,99683.00
2023-01-20T08:21:32.294Z,99682.81
2023-01-20T08:24:34.736Z,99693.13
2023-01-20T08:27:37.113Z,99696.78
2023-01-20T08:30:39.724Z,99704.06
2023-01-20T08:33:43.013Z,99704.75
2023-01-20T08:36:45.712Z,99704.94
2023-01-20T08:39:48.234Z,99715.59
2023-01-20T08:42:50.699Z,99717.63
2023-01-20T08:46:05.409Z,99719.28
2023-01-20T08:49:14.319Z,99718.81
2023-01-20T08:52:16.801Z,99699.97
2023-01-20T08:55:19.379Z,99691.25
2023-01-20T08:58:24.026Z,99691.06
2023-01-20T09:01:29.877Z,99679.91
2023-01-20T09:04:36.950Z,99690.00
2023-01-20T09:07:39.426Z,99696.47
2023-01-20T09:10:41.938Z,99683.31
2023-01-20T09:13:44.649Z,99700.81
2023-01-20T09:16:47.562Z,99690.94
2023-01-20T09:19:50.175Z,99691.63
2023-01-20T09:22:52.954Z,99700.34
2023-01-20T09:25:55.626Z,99696.75
2023-01-20T09:28:58.283Z,99669.81
2023-01-20T09:32:01.255Z,99668.06
2023-01-20T09:35:04.212Z,99669.03
2023-01-20T09:38:25.427Z,99648.88
2023-01-20T09:41:51.267Z,99634.53
2023-01-20T09:44:57.634Z,99638.69
2023-01-20T09:48:15.147Z,99632.69
2023-01-20T09:51:43.323Z,99653.53
2023-01-20T09:54:51.793Z,99649.84
2023-01-20T09:57:59.862Z,99648.88
2023-01-20T10:01:32.877Z,99657.53
2023-01-20T10:04:42.346Z,99648.59
2023-01-20T10:07:58.717Z,99636.56
2023-01-20T10:11:12.270Z,99632.97
2023-01-20T10:14:25.326Z,99622.69
2023-01-20T10:17:49.102Z,99638.03
2023-01-20T10:20:59.779Z,99628.13
2023-01-20T10:24:13.325Z,99646.66
2023-01-20T10:27:15.770Z,99641.53
2023-01-20T10:30:19.579Z,99636.22
2023-01-20T10:33:28.184Z,99620.69
2023-01-20T10:36:31.756Z,99610.81
2023-01-20T10:39:41.253Z,99624.38
2023-01-20T10:42:49.390Z,99624.44
2023-01-20T10:46:04.028Z,99625.16
2023-01-20T10:49:35.312Z,99619.22
2023-01-20T10:53:08.370Z,99611.69
2023-01-20T10:56:35.249Z,99599.94
2023-01-20T10:59:41.247Z,99606.91
2023-01-20T11:02:43.863Z,99584.63
2023-01-20T11:05:47.828Z,99580.66
2023-01-20T11:08:50.354Z,99570.00
2023-01-20T11:11:53.170Z,99575.63
2023-01-20T11:14:59.920Z,99564.19
2023-01-20T11:18:14.454Z,99572.31
2023-01-20T11:21:23.902Z,99551.41
2023-01-20T11:24:40.357Z,99563.13
2023-01-20T11:27:44.685Z,99554.88
2023-01-20T11:30:52.342Z,99535.88
2023-01-20T11:34:20.762Z,99551.78
2023-01-20T11:37:27.758Z,99534.06
2023-01-20T11:40:30.406Z,99524.56
2023-01-20T11:43:37.898Z,99541.13
2023-01-20T11:46:40.443Z,99535.28
2023-01-20T11:49:42.865Z,99531.44
2023-01-20T11:52:47.338Z,99522.41
2023-01-20T11:55:59.901Z,99517.88
2023-01-20T11:59:03.599Z,99511.09
2023-01-20T12:02:09.224Z,99517.88
2023-01-20T12:05:25.280Z,99499.78
2023-01-20T12:08:42.963Z,99521.09
2023-01-20T12:12:05.139Z,99508.00
2023-01-20T12:15:18.209Z,99495.69
2023-01-20T12:18:50.400Z,99503.34
2023-01-20T12:22:09.296Z,99492.50
2023-01-20T12:25:13.800Z,99505.78
2023-01-20T12:28:20.110Z,99492.19
2023-01-20T12:41:42.324Z,99459.06
2023-01-20T13:09:33.685Z,99472.63
2023-01-20T13:13:01.152Z,99442.13
2023-01-20T13:16:11.054Z,99460.59
2023-01-20T13:19:24.406Z,99458.16
2023-01-20T13:22:27.009Z,99467.66
2023-01-20T13:25:30.107Z,99470.78
2023-01-20T13:28:32.887Z,99449.47
2023-01-20T13:31:38.576Z,99444.81
2023-01-20T13:34:41.558Z,99430.09
2023-01-20T13:37:52.483Z,99433.44
2023-01-20T13:41:03.222Z,99446.59
2023-01-20T13:44:26.292Z,99436.13
2023-01-20T13:47:46.954Z,99408.75
2023-01-20T13:50:50.380Z,99445.03
2023-01-20T13:53:53.449Z,99438.00
2023-01-20T13:57:23.112Z,99444.00
2023-01-20T14:00:25.900Z,99434.31
2023-01-20T14:03:30.042Z,99407.88
2023-01-20T14:06:34.217Z,99401.50
2023-01-20T14:09:37.429Z,99411.97
2023-01-20T14:12:40.611Z,99422.50
2023-01-20T14:15:43.045Z,99420.66
2023-01-20T14:18:45.919Z,99401.41
2023-01-20T14:21:53.173Z,99410.59
2023-01-20T14:25:01.783Z,99397.72
2023-01-20T14:28:18.596Z,99391.03
2023-01-20T14:31:22.275Z,99400.91
2023-01-20T14:34:32.735Z,99392.28
2023-01-20T14:37:36.855Z,99382.97
2023-01-20T14:40:42.936Z,99395.66
2023-01-20T14:43:45.806Z,99404.75
2023-01-20T14:46:50.325Z,99373.41
2023-01-20T14:49:53.969Z,99404.34
2023-01-20T14:52:56.635Z,99410.19
2023-01-20T14:56:07.761Z,99417.81
2023-01-20T14:59:18.929Z,99426.22
2023-01-20T15:02:28.497Z,99420.22
2023-01-20T15:05:34.275Z,99421.47
2023-01-20T15:08:37.347Z,99424.56
2023-01-20T15:11:40.113Z,99379.38
2023-01-20T15:14:42.580Z,99409.56
2023-01-20T15:18:20.098Z,99411.66
2023-01-20T15:21:27.222Z,99385.75
2023-01-20T15:24:31.440Z,99399.09
2023-01-20T15:27:34.122Z,99390.94
2023-01-20T15:30:37.269Z,99400.81
2023-01-20T15:33:39.706Z,99408.75
2023-01-20T15:36:43.955Z,99409.81
2023-01-20T15:39:47.575Z,99390.66
2023-01-20T15:42:51.251Z,99390.84
2023-01-20T15:45:53.772Z,99392.84
2023-01-20T15:48:56.853Z,99404.75
2023-01-20T15:51:59.653Z,99383.19
2023-01-20T15:55:02.080Z,99399.94
2023-01-20T15:58:21.010Z,99390.88
2023-01-20T16:01:25.487Z,99377.16
2023-01-20T16:04:28.813Z,99369.72
2023-01-20T16:07:31.187Z,99402.28
2023-01-20T16:10:36.133Z,99403.28
2023-01-20T16:13:38.656Z,99404.34
2023-01-20T16:16:41.201Z,99407.56
2023-01-20T16:19:44.189Z,99401.66
2023-01-20T16:22:46.642Z,99412.78
2023-01-20T16:25:49.317Z,99415.50
2023-01-20T16:28:53.322Z,99421.28
2023-01-20T16:31:55.770Z,99407.13
2023-01-20T16:34:58.407Z,99407.41
2023-01-20T16:38:03.255Z,99406.44
2023-01-20T16:41:13.924Z,99431.78
2023-01-20T16:44:16.693Z,99441.66
2023-01-20T16:47:19.238Z,99444.03
2023-01-20T16:50:22.116Z,99439.84
2023-01-20T16:53:24.550Z,99451.41
2023-01-20T16:56:30.959Z,99442.88
2023-01-20T16:59:33.842Z,99428.75
2023-01-20T17:02:38.936Z,99447.81
2023-01-20T17:05:41.586Z,99454.09
2023-01-20T17:08:49.044Z,99454.59
2023-01-20T17:11:51.655Z,99441.16
2023-01-20T17:14:54.037Z,99440.50
2023-01-20T17:17:58.307Z,99455.84
2023-01-20T17:21:07.600Z,99432.63
2023-01-20T17:24:11.259Z,99463.63
2023-01-20T17:27:13.674Z,99456.66
2023-01-20T17:30:17.932Z,99473.13
2023-01-20T17:33:20.528Z,99467.97
2023-01-20T17:36:23.155Z,99459.66
2023-01-20T17:39:26.132Z,99466.25
2023-01-20T17:42:28.642Z,99467.81
2023-01-20T17:45:32.029Z,99462.31
2023-01-20T17:48:34.715Z,99472.53
2023-01-20T17:51:37.178Z,99472.19
2023-01-20T17:54:39.765Z,99461.31
2023-01-20T17:57:42.469Z,99475.25
2023-01-20T18:00:44.927Z,99463.06
2023-01-20T18:03:50.436Z,99468.19
2023-01-20T18:06:53.198Z,99462.09
2023-01-20T18:09:55.646Z,99475.66
2023-01-20T18:12:58.378Z,99505.41
2023-01-20T18:16:09.000Z,99500.25
2023-01-20T18:19:13.135Z,99480.59
2023-01-20T18:22:16.347Z,99480.59
2023-01-20T18:25:18.868Z,99502.84
2023-01-20T18:28:21.482Z,99477.00
2023-01-20T18:31:25.991Z,99470.03
2023-01-20T18:34:29.732Z,99502.66
2023-01-20T18:37:32.373Z,99516.81
2023-01-20T18:40:35.039Z,99514.47
2023-01-20T18:43:38.473Z,99510.88
2023-01-20T18:46:41.139Z,99509.44
2023-01-20T18:49:43.729Z,99513.59
2023-01-20T18:52:46.213Z,99518.84
2023-01-20T18:55:48.677Z,99507.94
2023-01-20T18:58:51.701Z,99534.69
2023-01-20T19:01:56.368Z,99549.97
2023-01-20T19:04:59.054Z,99511.66
2023-01-20T19:08:01.690Z,99550.13
2023-01-20T19:11:06.786Z,99553.88
2023-01-20T19:14:12.863Z,99540.34
2023-01-20T19:17:15.932Z,99537.41
2023-01-20T19:20:18.724Z,99546.78
2023-01-20T19:23:21.485Z,99547.91
2023-01-20T19:26:25.586Z,99550.63
2023-01-20T19:29:29.466Z,99545.97
2023-01-20T19:32:32.288Z,99560.84
2023-01-20T19:35:35.268Z,99567.25
2023-01-20T19:38:38.456Z,99551.19
2023-01-20T19:41:41.046Z,99569.09
2023-01-20T19:44:43.666Z,99570.94
2023-01-20T19:47:47.347Z,99562.69
2023-01-20T19:50:50.119Z,99575.16
2023-01-20T19:53:57.433Z,99576.44
2023-01-20T19:57:00.617Z,99569.94
2023-01-20T20:00:04.868Z,99579.56
2023-01-20T20:03:15.016Z,99584.22
2023-01-20T20:06:31.951Z,99590.75
2023-01-20T20:09:35.460Z,99581.09
2023-01-20T20:12:37.923Z,99604.59
2023-01-20T20:15:40.680Z,99605.72
2023-01-20T20:18:43.551Z,99585.19
2023-01-20T20:21:46.672Z,99600.72
2023-01-20T20:24:49.473Z,99601.06
2023-01-20T20:27:52.513Z,99617.16
2023-01-20T20:30:56.701Z,99595.28
2023-01-20T20:34:00.443Z,99622.53
2023-01-20T20:37:03.547Z,99603.31
2023-01-20T20:40:06.881Z,99612.50
2023-01-20T20:43:10.053Z,99609.47
2023-01-20T20:46:16.494Z,99632.63
2023-01-20T20:49:19.229Z,99630.78
2023-01-20T20:52:21.885Z,99618.88
2023-01-20T20:55:25.464Z,99634.44
2023-01-20T20:58:29.045Z,99644.13
2023-01-20T21:01:34.097Z,99627.53
2023-01-20T21:04:36.668Z,99632.97
2023-01-20T21:07:39.306Z,99638.97
2023-01-20T21:10:42.795Z,99632.84
2023-01-20T21:13:45.523Z,99646.09
2023-01-20T21:16:48.574Z,99646.22
2023-01-20T21:19:52.474Z,99644.66
2023-01-20T21:22:55.407Z,99676.91
2023-01-20T21:26:02.249Z,99668.31
2023-01-20T21:29:04.855Z,99665.22
2023-01-20T21:32:07.300Z,99657.25
2023-01-20T21:35:10.383Z,99672.00
2023-01-20T21:38:13.744Z,99663.44
2023-01-20T21:41:16.553Z,99646.56
2023-01-20T21:44:32.860Z,99663.66
2023-01-20T21:47:35.380Z,99651.28
2023-01-20T21:50:56.159Z,99655.53
2023-01-20T21:53:58.848Z,99667.56
2023-01-20T21:57:01.903Z,99671.19
2023-01-20T22:00:06.897Z,99665.75
2023-01-20T22:03:15.881Z,99688.03
2023-01-20T22:06:18.426Z,99669.91
2023-01-20T22:09:20.977Z,99681.88
2023-01-20T22:12:23.354Z,99677.94
2023-01-20T22:15:25.921Z,99700.28
2023-01-20T22:18:28.414Z,99700.34
2023-01-20T22:21:32.438Z,99686.84
2023-01-20T22:24:34.929Z,99705.75
2023-01-20T22:27:37.410Z,99711.50
2023-01-20T22:30:40.100Z,99715.22
2023-01-20T22:33:42.742Z,99713.41
2023-01-20T22:36:46.747Z,99720.66
2023-01-20T22:39:49.802Z,99697.09
2023-01-20T22:42:52.286Z,99719.38
2023-01-20T22:45:59.337Z,99729.31
2023-01-20T22:49:02.362Z,99736.81
2023-01-20T22:52:04.978Z,99732.75
2023-01-20T22:55:07.858Z,99749.94
2023-01-20T22:58:10.290Z,99757.94
2023-01-20T23:01:33.467Z,99760.66
2023-01-20T23:04:35.917Z,99754.16
2023-01-20T23:07:38.597Z,99753.84
2023-01-20T23:10:47.314Z,99731.66
2023-01-20T23:13:50.752Z,99754.50
2023-01-20T23:16:53.243Z,99758.75
2023-01-20T23:19:56.836Z,99754.66
2023-01-20T23:22:59.221Z,99764.06
2023-01-20T23:26:06.977Z,99787.47
2023-01-20T23:29:09.442Z,99790.34
2023-01-20T23:32:11.950Z,99783.69
2023-01-20T23:35:14.461Z,99792.06
2023-01-20T23:38:16.912Z,99815.69
2023-01-20T23:41:20.062Z,99812.94
2023-01-20T23:44:22.475Z,99801.22
2023-01-20T23:47:25.010Z,99785.38
2023-01-20T23:50:27.536Z,99821.22
2023-01-20T23:53:31.211Z,99817.91
2023-01-20T23:56:33.680Z,99814.81
2023-01-20T23:59:37.934Z,99824.47
